Sawtry, United Kingdom
Current Conditions -  °F | °C
As of 8:50 PM on Sunday 23 Nov 2014 (Local Time) from EGXT Reporting Station
Clear Clear  
Wind Chill: 32°   Ceiling: Unl
Heat Index: 39°   Visibility: 6mi
Dew Point: 37°   Wind: 10mph
Humidity: 93%   Direction: 280°W
Pressure: 30.09"   Gusts: NA
Location:  52.44°N, 0.28°W
Report Text: EGXT 232050Z AUTO 28009KT 9999 NCD 04/03 Q1019
Loading
Personal Weather Stations






























Interactive Weather Map New forecast layout! Learn more

10-Day Weather Forecast

Advertisements
Track Severe Weather on mobile